Monkey Island, Oklahoma
Current Conditions -  °F | °C
As of 3:55 PM on Monday 22 Dec 2014 (Local Time) from KGMJ Reporting Station
Haze Haze  
Wind Chill: 52°   Ceiling: 1200
Heat Index: 52°   Visibility: 3mi
Dew Point: 52°   Wind: 8mph
Humidity: 100%   Direction: 240°WSW
Pressure: 29.53"   Gusts: NA
Location:  36.651°N, 94.9303°W
Report Text: KGMJ 222155Z AUTO 24007KT 3SM BR SCT009 BKN012 OVC020 11/11 A2953 RMK AO2
Loading
Personal Weather Stations






























Interactive Weather Map New forecast layout! Learn more

10-Day Weather Forecast

Advertisements
Track Severe Weather on mobile